Terminal Aerodrome Forecast
Issued by NWS

Home | Current Version | Previous Version | Text Only | Print | Product List | Glossary On
Versions: 1 2 3 4 5 6 7 8 9 10 11 12 13 14 15 16 17 18 19 20
000
FTUS44 KLZK 270500 RRA
TAFBPK
TAF
KBPK 270545Z 2706/2806 VRB04KT P6SM SCT050 BKN100
     FM271100 35004KT P6SM SCT025 BKN050
     FM271500 35006KT P6SM OVC025
     FM272000 35006KT P6SM SCT035 BKN250
     FM280000 VRB03KT P6SM SCT100 BKN250=

USA.gov is the U.S. government's official web portal to all federal, state and local government web resources and services.